sensor_id;sensor_type;location;lat;lon;timestamp;P1;durP1;ratioP1;P2;durP2;ratioP2
51943;SDS011;37969;53.132;6.370;2024-01-06T00:00:48;43.85;;;27.45;;
51943;SDS011;37969;53.132;6.370;2024-01-06T00:03:17;37.20;;;23.95;;
51943;SDS011;37969;53.132;6.370;2024-01-06T00:05:46;35.67;;;20.88;;
51943;SDS011;37969;53.132;6.370;2024-01-06T00:08:16;41.33;;;25.92;;
51943;SDS011;37969;53.132;6.370;2024-01-06T00:10:42;42.83;;;26.30;;
51943;SDS011;37969;53.132;6.370;2024-01-06T00:13:14;34.95;;;23.02;;
51943;SDS011;37969;53.132;6.370;2024-01-06T00:15:41;32.03;;;21.95;;
51943;SDS011;37969;53.132;6.370;2024-01-06T00:18:09;34.70;;;23.15;;
51943;SDS011;37969;53.132;6.370;2024-01-06T00:20:35;35.17;;;22.08;;
51943;SDS011;37969;53.132;6.370;2024-01-06T00:23:01;34.10;;;22.00;;
51943;SDS011;37969;53.132;6.370;2024-01-06T00:25:28;38.58;;;23.95;;
51943;SDS011;37969;53.132;6.370;2024-01-06T00:27:57;37.63;;;23.60;;
51943;SDS011;37969;53.132;6.370;2024-01-06T00:30:24;37.78;;;22.95;;
51943;SDS011;37969;53.132;6.370;2024-01-06T00:32:51;35.63;;;23.35;;
51943;SDS011;37969;53.132;6.370;2024-01-06T00:35:17;40.70;;;25.25;;
51943;SDS011;37969;53.132;6.370;2024-01-06T00:37:47;40.17;;;23.75;;
51943;SDS011;37969;53.132;6.370;2024-01-06T00:40:16;38.75;;;24.80;;
51943;SDS011;37969;53.132;6.370;2024-01-06T00:42:44;45.42;;;26.90;;
51943;SDS011;37969;53.132;6.370;2024-01-06T00:45:12;47.53;;;26.98;;
51943;SDS011;37969;53.132;6.370;2024-01-06T00:47:40;48.25;;;28.67;;
51943;SDS011;37969;53.132;6.370;2024-01-06T00:50:09;36.75;;;23.60;;
51943;SDS011;37969;53.132;6.370;2024-01-06T00:52:38;34.28;;;23.13;;
51943;SDS011;37969;53.132;6.370;2024-01-06T00:55:04;41.78;;;26.08;;
51943;SDS011;37969;53.132;6.370;2024-01-06T00:57:32;35.20;;;22.75;;
51943;SDS011;37969;53.132;6.370;2024-01-06T01:00:04;32.53;;;21.73;;
51943;SDS011;37969;53.132;6.370;2024-01-06T01:02:33;44.03;;;29.10;;
51943;SDS011;37969;53.132;6.370;2024-01-06T01:05:04;38.53;;;23.75;;
51943;SDS011;37969;53.132;6.370;2024-01-06T01:07:33;39.63;;;25.55;;
51943;SDS011;37969;53.132;6.370;2024-01-06T01:10:02;36.28;;;22.98;;
51943;SDS011;37969;53.132;6.370;2024-01-06T01:15:04;37.72;;;20.58;;
51943;SDS011;37969;53.132;6.370;2024-01-06T01:20:00;32.25;;;20.40;;
51943;SDS011;37969;53.132;6.370;2024-01-06T01:22:26;29.80;;;19.70;;
51943;SDS011;37969;53.132;6.370;2024-01-06T01:24:59;28.88;;;19.83;;
51943;SDS011;37969;53.132;6.370;2024-01-06T01:27:33;32.90;;;21.05;;
51943;SDS011;37969;53.132;6.370;2024-01-06T01:29:59;33.45;;;22.35;;
51943;SDS011;37969;53.132;6.370;2024-01-06T01:32:25;36.88;;;22.40;;
51943;SDS011;37969;53.132;6.370;2024-01-06T01:34:51;36.83;;;22.63;;
51943;SDS011;37969;53.132;6.370;2024-01-06T01:37:17;40.53;;;24.23;;
51943;SDS011;37969;53.132;6.370;2024-01-06T01:39:45;35.00;;;22.30;;
51943;SDS011;37969;53.132;6.370;2024-01-06T01:42:12;38.08;;;23.58;;
51943;SDS011;37969;53.132;6.370;2024-01-06T01:44:39;39.05;;;23.83;;
51943;SDS011;37969;53.132;6.370;2024-01-06T01:47:11;35.95;;;23.38;;
51943;SDS011;37969;53.132;6.370;2024-01-06T01:49:45;32.55;;;21.40;;
51943;SDS011;37969;53.132;6.370;2024-01-06T01:52:12;38.90;;;24.08;;
51943;SDS011;37969;53.132;6.370;2024-01-06T01:54:38;36.67;;;23.25;;
51943;SDS011;37969;53.132;6.370;2024-01-06T01:57:05;36.67;;;23.38;;
51943;SDS011;37969;53.132;6.370;2024-01-06T01:59:36;33.90;;;22.10;;
51943;SDS011;37969;53.132;6.370;2024-01-06T02:02:02;35.20;;;21.73;;
51943;SDS011;37969;53.132;6.370;2024-01-06T02:04:29;30.38;;;20.00;;
51943;SDS011;37969;53.132;6.370;2024-01-06T02:06:56;30.65;;;20.83;;
51943;SDS011;37969;53.132;6.370;2024-01-06T02:09:23;29.65;;;19.73;;
51943;SDS011;37969;53.132;6.370;2024-01-06T02:11:56;26.92;;;18.63;;
51943;SDS011;37969;53.132;6.370;2024-01-06T02:14:24;28.90;;;19.10;;
51943;SDS011;37969;53.132;6.370;2024-01-06T02:16:53;25.88;;;18.92;;
51943;SDS011;37969;53.132;6.370;2024-01-06T02:21:53;25.60;;;17.08;;
51943;SDS011;37969;53.132;6.370;2024-01-06T02:24:21;24.50;;;17.25;;
51943;SDS011;37969;53.132;6.370;2024-01-06T02:26:49;22.60;;;16.08;;
51943;SDS011;37969;53.132;6.370;2024-01-06T02:29:18;23.83;;;16.05;;
51943;SDS011;37969;53.132;6.370;2024-01-06T02:31:48;27.55;;;17.40;;
51943;SDS011;37969;53.132;6.370;2024-01-06T02:34:14;25.98;;;17.13;;
51943;SDS011;37969;53.132;6.370;2024-01-06T02:36:40;23.95;;;16.92;;
51943;SDS011;37969;53.132;6.370;2024-01-06T02:39:08;25.13;;;16.77;;
51943;SDS011;37969;53.132;6.370;2024-01-06T02:41:38;26.70;;;17.48;;
51943;SDS011;37969;53.132;6.370;2024-01-06T02:44:06;27.77;;;18.10;;
51943;SDS011;37969;53.132;6.370;2024-01-06T02:46:39;27.77;;;17.05;;
51943;SDS011;37969;53.132;6.370;2024-01-06T02:49:08;26.08;;;16.88;;
51943;SDS011;37969;53.132;6.370;2024-01-06T02:51:34;26.38;;;17.67;;
51943;SDS011;37969;53.132;6.370;2024-01-06T02:54:03;27.63;;;17.33;;
51943;SDS011;37969;53.132;6.370;2024-01-06T02:56:33;30.08;;;18.05;;
51943;SDS011;37969;53.132;6.370;2024-01-06T02:59:03;28.70;;;18.85;;
51943;SDS011;37969;53.132;6.370;2024-01-06T03:01:31;31.58;;;18.20;;
51943;SDS011;37969;53.132;6.370;2024-01-06T03:04:04;27.40;;;18.27;;
51943;SDS011;37969;53.132;6.370;2024-01-06T03:06:30;29.85;;;18.08;;
51943;SDS011;37969;53.132;6.370;2024-01-06T03:09:00;28.55;;;18.13;;
51943;SDS011;37969;53.132;6.370;2024-01-06T03:11:27;29.58;;;18.38;;
51943;SDS011;37969;53.132;6.370;2024-01-06T03:13:58;27.05;;;16.90;;
51943;SDS011;37969;53.132;6.370;2024-01-06T03:16:28;25.25;;;15.35;;
51943;SDS011;37969;53.132;6.370;2024-01-06T03:18:55;25.48;;;16.45;;
51943;SDS011;37969;53.132;6.370;2024-01-06T03:21:23;27.08;;;16.50;;
51943;SDS011;37969;53.132;6.370;2024-01-06T03:23:51;26.85;;;17.20;;
51943;SDS011;37969;53.132;6.370;2024-01-06T03:26:20;28.10;;;16.95;;
51943;SDS011;37969;53.132;6.370;2024-01-06T03:28:53;28.23;;;17.92;;
51943;SDS011;37969;53.132;6.370;2024-01-06T03:31:20;26.20;;;18.13;;
51943;SDS011;37969;53.132;6.370;2024-01-06T03:33:47;26.65;;;16.88;;
51943;SDS011;37969;53.132;6.370;2024-01-06T03:36:21;31.02;;;17.67;;
51943;SDS011;37969;53.132;6.370;2024-01-06T03:38:49;25.65;;;17.52;;
51943;SDS011;37969;53.132;6.370;2024-01-06T03:41:16;30.70;;;17.55;;
51943;SDS011;37969;53.132;6.370;2024-01-06T03:43:49;30.85;;;18.17;;
51943;SDS011;37969;53.132;6.370;2024-01-06T03:46:17;30.33;;;18.15;;
51943;SDS011;37969;53.132;6.370;2024-01-06T03:48:43;29.98;;;17.88;;
51943;SDS011;37969;53.132;6.370;2024-01-06T03:51:10;34.50;;;19.38;;
51943;SDS011;37969;53.132;6.370;2024-01-06T03:53:36;33.30;;;20.05;;
51943;SDS011;37969;53.132;6.370;2024-01-06T03:56:05;34.92;;;19.92;;
51943;SDS011;37969;53.132;6.370;2024-01-06T03:58:32;33.72;;;20.65;;
51943;SDS011;37969;53.132;6.370;2024-01-06T04:00:58;34.80;;;20.98;;
51943;SDS011;37969;53.132;6.370;2024-01-06T04:03:24;34.08;;;20.98;;
51943;SDS011;37969;53.132;6.370;2024-01-06T04:06:02;38.70;;;21.90;;
51943;SDS011;37969;53.132;6.370;2024-01-06T04:08:36;34.70;;;21.55;;
51943;SDS011;37969;53.132;6.370;2024-01-06T04:11:02;38.13;;;22.05;;
51943;SDS011;37969;53.132;6.370;2024-01-06T04:13:30;34.70;;;21.20;;
51943;SDS011;37969;53.132;6.370;2024-01-06T04:15:56;36.13;;;21.55;;
51943;SDS011;37969;53.132;6.370;2024-01-06T04:18:24;33.75;;;21.13;;
51943;SDS011;37969;53.132;6.370;2024-01-06T04:20:54;35.58;;;21.13;;
51943;SDS011;37969;53.132;6.370;2024-01-06T04:23:25;28.40;;;18.95;;
51943;SDS011;37969;53.132;6.370;2024-01-06T04:25:53;29.10;;;19.20;;
51943;SDS011;37969;53.132;6.370;2024-01-06T04:28:23;32.70;;;19.95;;
51943;SDS011;37969;53.132;6.370;2024-01-06T04:30:52;27.87;;;18.80;;
51943;SDS011;37969;53.132;6.370;2024-01-06T04:33:23;27.00;;;18.50;;
51943;SDS011;37969;53.132;6.370;2024-01-06T04:35:51;27.95;;;17.75;;
51943;SDS011;37969;53.132;6.370;2024-01-06T04:38:17;29.35;;;18.20;;
51943;SDS011;37969;53.132;6.370;2024-01-06T04:40:47;34.13;;;19.77;;
51943;SDS011;37969;53.132;6.370;2024-01-06T04:43:14;30.02;;;17.90;;
51943;SDS011;37969;53.132;6.370;2024-01-06T04:48:12;27.38;;;17.77;;
51943;SDS011;37969;53.132;6.370;2024-01-06T04:50:41;27.30;;;17.02;;
51943;SDS011;37969;53.132;6.370;2024-01-06T04:53:10;23.85;;;17.55;;
51943;SDS011;37969;53.132;6.370;2024-01-06T04:55:36;27.75;;;17.17;;
51943;SDS011;37969;53.132;6.370;2024-01-06T04:58:02;35.42;;;18.15;;
51943;SDS011;37969;53.132;6.370;2024-01-06T05:00:33;30.63;;;17.40;;
51943;SDS011;37969;53.132;6.370;2024-01-06T05:03:05;31.33;;;18.58;;
51943;SDS011;37969;53.132;6.370;2024-01-06T05:05:31;31.50;;;19.98;;
51943;SDS011;37969;53.132;6.370;2024-01-06T05:08:00;33.17;;;18.48;;
51943;SDS011;37969;53.132;6.370;2024-01-06T05:10:29;25.20;;;16.53;;
51943;SDS011;37969;53.132;6.370;2024-01-06T05:12:57;25.95;;;17.48;;
51943;SDS011;37969;53.132;6.370;2024-01-06T05:15:31;25.40;;;17.08;;
51943;SDS011;37969;53.132;6.370;2024-01-06T05:17:58;26.80;;;17.33;;
51943;SDS011;37969;53.132;6.370;2024-01-06T05:20:26;25.30;;;16.98;;
51943;SDS011;37969;53.132;6.370;2024-01-06T05:22:52;24.10;;;16.48;;
51943;SDS011;37969;53.132;6.370;2024-01-06T05:25:19;23.88;;;16.35;;
51943;SDS011;37969;53.132;6.370;2024-01-06T05:27:45;22.42;;;17.08;;
51943;SDS011;37969;53.132;6.370;2024-01-06T05:30:11;23.45;;;16.25;;
51943;SDS011;37969;53.132;6.370;2024-01-06T05:32:41;26.15;;;17.20;;
51943;SDS011;37969;53.132;6.370;2024-01-06T05:35:16;23.35;;;16.23;;
51943;SDS011;37969;53.132;6.370;2024-01-06T05:37:45;26.23;;;17.48;;
51943;SDS011;37969;53.132;6.370;2024-01-06T05:40:16;28.00;;;16.42;;
51943;SDS011;37969;53.132;6.370;2024-01-06T05:42:42;26.70;;;17.02;;
51943;SDS011;37969;53.132;6.370;2024-01-06T05:45:14;23.33;;;16.65;;
51943;SDS011;37969;53.132;6.370;2024-01-06T05:47:43;28.73;;;16.85;;
51943;SDS011;37969;53.132;6.370;2024-01-06T05:50:15;21.70;;;15.82;;
51943;SDS011;37969;53.132;6.370;2024-01-06T05:52:47;20.92;;;14.52;;
51943;SDS011;37969;53.132;6.370;2024-01-06T05:55:15;24.83;;;16.35;;
51943;SDS011;37969;53.132;6.370;2024-01-06T05:57:43;26.00;;;15.95;;
51943;SDS011;37969;53.132;6.370;2024-01-06T06:00:12;23.58;;;14.98;;
51943;SDS011;37969;53.132;6.370;2024-01-06T06:02:41;22.48;;;14.63;;
51943;SDS011;37969;53.132;6.370;2024-01-06T06:05:07;19.00;;;14.00;;
51943;SDS011;37969;53.132;6.370;2024-01-06T06:07:36;22.92;;;15.63;;
51943;SDS011;37969;53.132;6.370;2024-01-06T06:10:06;24.87;;;15.00;;
51943;SDS011;37969;53.132;6.370;2024-01-06T06:12:34;22.77;;;15.65;;
51943;SDS011;37969;53.132;6.370;2024-01-06T06:15:09;20.10;;;15.40;;
51943;SDS011;37969;53.132;6.370;2024-01-06T06:17:37;23.33;;;16.38;;
51943;SDS011;37969;53.132;6.370;2024-01-06T06:20:04;24.25;;;15.35;;
51943;SDS011;37969;53.132;6.370;2024-01-06T06:22:32;22.52;;;15.95;;
51943;SDS011;37969;53.132;6.370;2024-01-06T06:24:59;25.15;;;16.05;;
51943;SDS011;37969;53.132;6.370;2024-01-06T06:27:30;22.92;;;16.10;;
51943;SDS011;37969;53.132;6.370;2024-01-06T06:29:57;23.05;;;15.18;;
51943;SDS011;37969;53.132;6.370;2024-01-06T06:32:25;24.48;;;15.85;;
51943;SDS011;37969;53.132;6.370;2024-01-06T06:34:54;24.00;;;16.05;;
51943;SDS011;37969;53.132;6.370;2024-01-06T06:37:22;26.13;;;16.17;;
51943;SDS011;37969;53.132;6.370;2024-01-06T06:39:51;23.23;;;15.95;;
51943;SDS011;37969;53.132;6.370;2024-01-06T06:42:19;23.50;;;16.73;;
51943;SDS011;37969;53.132;6.370;2024-01-06T06:44:47;27.55;;;17.38;;
51943;SDS011;37969;53.132;6.370;2024-01-06T06:47:20;22.80;;;15.82;;
51943;SDS011;37969;53.132;6.370;2024-01-06T06:49:50;22.70;;;16.45;;
51943;SDS011;37969;53.132;6.370;2024-01-06T06:52:18;24.52;;;16.27;;
51943;SDS011;37969;53.132;6.370;2024-01-06T06:54:49;22.92;;;16.77;;
51943;SDS011;37969;53.132;6.370;2024-01-06T06:57:18;28.00;;;16.42;;
51943;SDS011;37969;53.132;6.370;2024-01-06T06:59:46;26.63;;;16.92;;
51943;SDS011;37969;53.132;6.370;2024-01-06T07:02:14;28.80;;;17.60;;
51943;SDS011;37969;53.132;6.370;2024-01-06T07:04:40;29.23;;;18.52;;
51943;SDS011;37969;53.132;6.370;2024-01-06T07:07:07;27.77;;;18.52;;
51943;SDS011;37969;53.132;6.370;2024-01-06T07:09:34;27.88;;;19.10;;
51943;SDS011;37969;53.132;6.370;2024-01-06T07:12:03;38.33;;;19.60;;
51943;SDS011;37969;53.132;6.370;2024-01-06T07:14:32;27.13;;;18.63;;
51943;SDS011;37969;53.132;6.370;2024-01-06T07:19:31;30.92;;;20.75;;
51943;SDS011;37969;53.132;6.370;2024-01-06T07:21:58;32.78;;;20.50;;
51943;SDS011;37969;53.132;6.370;2024-01-06T07:24:25;38.42;;;21.52;;
51943;SDS011;37969;53.132;6.370;2024-01-06T07:26:54;32.45;;;20.70;;
51943;SDS011;37969;53.132;6.370;2024-01-06T07:29:21;34.53;;;20.77;;
51943;SDS011;37969;53.132;6.370;2024-01-06T07:31:51;31.80;;;20.80;;
51943;SDS011;37969;53.132;6.370;2024-01-06T07:34:19;36.38;;;21.05;;
51943;SDS011;37969;53.132;6.370;2024-01-06T07:36:45;33.63;;;21.63;;
51943;SDS011;37969;53.132;6.370;2024-01-06T07:39:14;38.65;;;23.05;;
51943;SDS011;37969;53.132;6.370;2024-01-06T07:41:42;33.90;;;21.45;;
51943;SDS011;37969;53.132;6.370;2024-01-06T07:44:11;39.67;;;22.52;;
51943;SDS011;37969;53.132;6.370;2024-01-06T07:46:38;36.20;;;22.35;;
51943;SDS011;37969;53.132;6.370;2024-01-06T07:49:06;44.13;;;23.75;;
51943;SDS011;37969;53.132;6.370;2024-01-06T07:51:35;36.50;;;21.80;;
51943;SDS011;37969;53.132;6.370;2024-01-06T07:54:05;36.72;;;21.13;;
51943;SDS011;37969;53.132;6.370;2024-01-06T07:56:34;41.17;;;24.42;;
51943;SDS011;37969;53.132;6.370;2024-01-06T07:59:02;35.08;;;23.48;;
51943;SDS011;37969;53.132;6.370;2024-01-06T08:01:28;32.88;;;22.50;;
51943;SDS011;37969;53.132;6.370;2024-01-06T08:03:58;34.70;;;22.77;;
51943;SDS011;37969;53.132;6.370;2024-01-06T08:06:30;33.85;;;22.42;;
51943;SDS011;37969;53.132;6.370;2024-01-06T08:08:58;38.67;;;23.08;;
51943;SDS011;37969;53.132;6.370;2024-01-06T08:11:25;37.38;;;23.20;;
51943;SDS011;37969;53.132;6.370;2024-01-06T08:13:51;40.88;;;24.77;;
51943;SDS011;37969;53.132;6.370;2024-01-06T08:16:18;34.40;;;23.25;;
51943;SDS011;37969;53.132;6.370;2024-01-06T08:18:44;39.15;;;23.25;;
51943;SDS011;37969;53.132;6.370;2024-01-06T08:21:10;34.40;;;23.08;;
51943;SDS011;37969;53.132;6.370;2024-01-06T08:23:38;38.28;;;24.10;;
51943;SDS011;37969;53.132;6.370;2024-01-06T08:26:05;36.13;;;24.25;;
51943;SDS011;37969;53.132;6.370;2024-01-06T08:28:34;34.28;;;23.77;;
51943;SDS011;37969;53.132;6.370;2024-01-06T08:31:03;40.50;;;24.57;;
51943;SDS011;37969;53.132;6.370;2024-01-06T08:33:29;37.63;;;23.70;;
51943;SDS011;37969;53.132;6.370;2024-01-06T08:35:56;34.50;;;22.95;;
51943;SDS011;37969;53.132;6.370;2024-01-06T08:38:25;39.55;;;23.63;;
51943;SDS011;37969;53.132;6.370;2024-01-06T08:40:51;35.03;;;23.73;;
51943;SDS011;37969;53.132;6.370;2024-01-06T08:43:21;34.22;;;23.15;;
51943;SDS011;37969;53.132;6.370;2024-01-06T08:45:52;36.08;;;24.48;;
51943;SDS011;37969;53.132;6.370;2024-01-06T08:48:20;35.38;;;23.58;;
51943;SDS011;37969;53.132;6.370;2024-01-06T08:50:50;42.25;;;25.58;;
51943;SDS011;37969;53.132;6.370;2024-01-06T08:53:22;36.00;;;23.67;;
51943;SDS011;37969;53.132;6.370;2024-01-06T08:55:53;36.42;;;24.83;;
51943;SDS011;37969;53.132;6.370;2024-01-06T08:58:19;39.67;;;24.55;;
51943;SDS011;37969;53.132;6.370;2024-01-06T09:00:47;34.72;;;24.67;;
51943;SDS011;37969;53.132;6.370;2024-01-06T09:03:15;37.50;;;24.65;;
51943;SDS011;37969;53.132;6.370;2024-01-06T09:05:51;38.03;;;24.73;;
51943;SDS011;37969;53.132;6.370;2024-01-06T09:08:18;33.10;;;22.15;;
51943;SDS011;37969;53.132;6.370;2024-01-06T09:10:46;30.83;;;22.67;;
51943;SDS011;37969;53.132;6.370;2024-01-06T09:13:20;32.38;;;21.05;;
51943;SDS011;37969;53.132;6.370;2024-01-06T09:15:48;29.75;;;20.55;;
51943;SDS011;37969;53.132;6.370;2024-01-06T09:18:16;32.42;;;22.23;;
51943;SDS011;37969;53.132;6.370;2024-01-06T09:20:42;30.52;;;21.25;;
51943;SDS011;37969;53.132;6.370;2024-01-06T09:23:15;31.17;;;21.17;;
51943;SDS011;37969;53.132;6.370;2024-01-06T09:25:51;29.80;;;20.30;;
51943;SDS011;37969;53.132;6.370;2024-01-06T09:28:18;34.17;;;21.40;;
51943;SDS011;37969;53.132;6.370;2024-01-06T09:30:46;31.10;;;21.10;;
51943;SDS011;37969;53.132;6.370;2024-01-06T09:33:12;29.52;;;20.08;;
51943;SDS011;37969;53.132;6.370;2024-01-06T09:35:42;27.17;;;19.55;;
51943;SDS011;37969;53.132;6.370;2024-01-06T09:38:09;27.27;;;19.35;;
51943;SDS011;37969;53.132;6.370;2024-01-06T09:40:36;29.17;;;19.90;;
51943;SDS011;37969;53.132;6.370;2024-01-06T09:43:13;28.02;;;19.42;;
51943;SDS011;37969;53.132;6.370;2024-01-06T09:45:39;30.38;;;19.90;;
51943;SDS011;37969;53.132;6.370;2024-01-06T09:48:11;29.40;;;19.52;;
51943;SDS011;37969;53.132;6.370;2024-01-06T09:50:41;26.85;;;18.80;;
51943;SDS011;37969;53.132;6.370;2024-01-06T09:53:09;27.48;;;18.00;;
51943;SDS011;37969;53.132;6.370;2024-01-06T09:55:36;25.13;;;18.88;;
51943;SDS011;37969;53.132;6.370;2024-01-06T09:58:03;30.95;;;19.15;;
51943;SDS011;37969;53.132;6.370;2024-01-06T10:03:00;24.65;;;17.10;;
51943;SDS011;37969;53.132;6.370;2024-01-06T10:05:33;24.23;;;17.20;;
51943;SDS011;37969;53.132;6.370;2024-01-06T10:08:01;23.70;;;16.88;;
51943;SDS011;37969;53.132;6.370;2024-01-06T10:10:30;23.52;;;16.17;;
51943;SDS011;37969;53.132;6.370;2024-01-06T10:12:59;25.47;;;17.40;;
51943;SDS011;37969;53.132;6.370;2024-01-06T10:15:29;26.48;;;18.02;;
51943;SDS011;37969;53.132;6.370;2024-01-06T10:17:56;28.10;;;18.58;;
51943;SDS011;37969;53.132;6.370;2024-01-06T10:20:28;23.70;;;16.63;;
51943;SDS011;37969;53.132;6.370;2024-01-06T10:23:04;26.45;;;17.92;;
51943;SDS011;37969;53.132;6.370;2024-01-06T10:25:32;24.90;;;17.83;;
51943;SDS011;37969;53.132;6.370;2024-01-06T10:28:00;25.42;;;18.27;;
51943;SDS011;37969;53.132;6.370;2024-01-06T10:30:34;24.10;;;17.27;;
51943;SDS011;37969;53.132;6.370;2024-01-06T10:33:08;24.20;;;17.55;;
51943;SDS011;37969;53.132;6.370;2024-01-06T10:35:39;25.13;;;17.85;;
51943;SDS011;37969;53.132;6.370;2024-01-06T10:38:07;25.27;;;18.20;;
51943;SDS011;37969;53.132;6.370;2024-01-06T10:40:35;24.65;;;17.35;;
51943;SDS011;37969;53.132;6.370;2024-01-06T10:43:07;22.67;;;16.25;;
51943;SDS011;37969;53.132;6.370;2024-01-06T10:45:37;20.85;;;16.48;;
51943;SDS011;37969;53.132;6.370;2024-01-06T10:48:03;23.85;;;17.63;;
51943;SDS011;37969;53.132;6.370;2024-01-06T10:50:32;21.17;;;15.95;;
51943;SDS011;37969;53.132;6.370;2024-01-06T10:53:02;20.75;;;15.95;;
51943;SDS011;37969;53.132;6.370;2024-01-06T10:55:36;22.52;;;16.27;;
51943;SDS011;37969;53.132;6.370;2024-01-06T11:00:32;21.30;;;16.00;;
51943;SDS011;37969;53.132;6.370;2024-01-06T11:03:00;19.38;;;15.27;;
51943;SDS011;37969;53.132;6.370;2024-01-06T11:05:28;20.80;;;15.82;;
51943;SDS011;37969;53.132;6.370;2024-01-06T11:07:56;20.27;;;14.82;;
51943;SDS011;37969;53.132;6.370;2024-01-06T11:10:26;19.45;;;15.77;;
51943;SDS011;37969;53.132;6.370;2024-01-06T11:13:09;16.42;;;13.88;;
51943;SDS011;37969;53.132;6.370;2024-01-06T11:15:38;18.15;;;14.02;;
51943;SDS011;37969;53.132;6.370;2024-01-06T11:18:06;19.42;;;13.50;;
51943;SDS011;37969;53.132;6.370;2024-01-06T11:20:32;17.10;;;14.18;;
51943;SDS011;37969;53.132;6.370;2024-01-06T11:23:17;16.63;;;13.55;;
51943;SDS011;37969;53.132;6.370;2024-01-06T11:25:45;15.48;;;13.07;;
51943;SDS011;37969;53.132;6.370;2024-01-06T11:28:13;20.48;;;13.85;;
51943;SDS011;37969;53.132;6.370;2024-01-06T11:30:44;17.20;;;14.55;;
51943;SDS011;37969;53.132;6.370;2024-01-06T11:33:15;17.83;;;13.68;;
51943;SDS011;37969;53.132;6.370;2024-01-06T11:35:46;19.23;;;14.45;;
51943;SDS011;37969;53.132;6.370;2024-01-06T11:38:18;16.67;;;11.98;;
51943;SDS011;37969;53.132;6.370;2024-01-06T11:40:44;15.32;;;12.18;;
51943;SDS011;37969;53.132;6.370;2024-01-06T11:43:11;17.65;;;13.40;;
51943;SDS011;37969;53.132;6.370;2024-01-06T11:45:41;18.10;;;13.55;;
51943;SDS011;37969;53.132;6.370;2024-01-06T11:48:10;14.77;;;12.77;;
51943;SDS011;37969;53.132;6.370;2024-01-06T11:50:38;14.40;;;12.18;;
51943;SDS011;37969;53.132;6.370;2024-01-06T11:53:15;14.52;;;12.38;;
51943;SDS011;37969;53.132;6.370;2024-01-06T11:55:48;15.55;;;11.68;;
51943;SDS011;37969;53.132;6.370;2024-01-06T11:58:18;13.52;;;10.75;;
51943;SDS011;37969;53.132;6.370;2024-01-06T12:00:55;12.07;;;10.43;;
51943;SDS011;37969;53.132;6.370;2024-01-06T12:03:22;12.82;;;10.68;;
51943;SDS011;37969;53.132;6.370;2024-01-06T12:06:00;11.90;;;10.43;;
51943;SDS011;37969;53.132;6.370;2024-01-06T12:08:29;13.13;;;10.65;;
51943;SDS011;37969;53.132;6.370;2024-01-06T12:11:02;13.32;;;10.30;;
51943;SDS011;37969;53.132;6.370;2024-01-06T12:13:32;13.25;;;10.73;;
51943;SDS011;37969;53.132;6.370;2024-01-06T12:16:00;10.30;;;9.20;;
51943;SDS011;37969;53.132;6.370;2024-01-06T12:21:00;12.52;;;10.20;;
51943;SDS011;37969;53.132;6.370;2024-01-06T12:23:27;12.68;;;9.70;;
51943;SDS011;37969;53.132;6.370;2024-01-06T12:25:55;12.43;;;10.13;;
51943;SDS011;37969;53.132;6.370;2024-01-06T12:28:30;13.52;;;10.68;;
51943;SDS011;37969;53.132;6.370;2024-01-06T12:31:03;13.75;;;10.93;;
51943;SDS011;37969;53.132;6.370;2024-01-06T12:33:32;16.33;;;11.35;;
51943;SDS011;37969;53.132;6.370;2024-01-06T12:36:02;13.10;;;10.82;;
51943;SDS011;37969;53.132;6.370;2024-01-06T12:38:30;12.65;;;10.27;;
51943;SDS011;37969;53.132;6.370;2024-01-06T12:41:03;15.27;;;10.85;;
51943;SDS011;37969;53.132;6.370;2024-01-06T12:43:30;14.60;;;10.52;;
51943;SDS011;37969;53.132;6.370;2024-01-06T12:45:56;13.13;;;10.20;;
51943;SDS011;37969;53.132;6.370;2024-01-06T12:48:24;13.02;;;10.75;;
51943;SDS011;37969;53.132;6.370;2024-01-06T12:50:56;11.57;;;9.68;;
51943;SDS011;37969;53.132;6.370;2024-01-06T12:53:23;12.52;;;9.45;;
51943;SDS011;37969;53.132;6.370;2024-01-06T12:55:54;13.15;;;10.18;;
51943;SDS011;37969;53.132;6.370;2024-01-06T12:58:23;14.25;;;10.10;;
51943;SDS011;37969;53.132;6.370;2024-01-06T13:00:50;14.13;;;9.90;;
51943;SDS011;37969;53.132;6.370;2024-01-06T13:03:16;13.63;;;10.27;;
51943;SDS011;37969;53.132;6.370;2024-01-06T13:05:46;12.95;;;10.20;;
51943;SDS011;37969;53.132;6.370;2024-01-06T13:08:19;12.25;;;10.32;;
51943;SDS011;37969;53.132;6.370;2024-01-06T13:10:46;12.70;;;10.25;;
51943;SDS011;37969;53.132;6.370;2024-01-06T13:13:15;14.40;;;10.07;;
51943;SDS011;37969;53.132;6.370;2024-01-06T13:15:44;13.10;;;10.02;;
51943;SDS011;37969;53.132;6.370;2024-01-06T13:20:42;13.13;;;10.68;;
51943;SDS011;37969;53.132;6.370;2024-01-06T13:23:14;14.73;;;10.75;;
51943;SDS011;37969;53.132;6.370;2024-01-06T13:25:43;14.10;;;11.18;;
51943;SDS011;37969;53.132;6.370;2024-01-06T13:28:13;15.13;;;11.32;;
51943;SDS011;37969;53.132;6.370;2024-01-06T13:30:42;14.35;;;11.55;;
51943;SDS011;37969;53.132;6.370;2024-01-06T13:33:11;15.38;;;11.68;;
51943;SDS011;37969;53.132;6.370;2024-01-06T13:35:37;17.38;;;11.40;;
51943;SDS011;37969;53.132;6.370;2024-01-06T13:38:04;13.20;;;10.27;;
51943;SDS011;37969;53.132;6.370;2024-01-06T13:40:30;14.43;;;10.85;;
51943;SDS011;37969;53.132;6.370;2024-01-06T13:43:02;14.98;;;11.05;;
51943;SDS011;37969;53.132;6.370;2024-01-06T13:45:30;15.25;;;11.38;;
51943;SDS011;37969;53.132;6.370;2024-01-06T13:47:56;13.93;;;11.32;;
51943;SDS011;37969;53.132;6.370;2024-01-06T13:50:25;15.67;;;11.33;;
51943;SDS011;37969;53.132;6.370;2024-01-06T13:52:54;14.65;;;11.25;;
51943;SDS011;37969;53.132;6.370;2024-01-06T13:55:23;15.70;;;10.95;;
51943;SDS011;37969;53.132;6.370;2024-01-06T13:57:51;14.32;;;11.13;;
51943;SDS011;37969;53.132;6.370;2024-01-06T14:00:21;13.93;;;11.07;;
51943;SDS011;37969;53.132;6.370;2024-01-06T14:02:51;14.77;;;10.95;;
51943;SDS011;37969;53.132;6.370;2024-01-06T14:05:19;14.43;;;10.60;;
51943;SDS011;37969;53.132;6.370;2024-01-06T14:07:46;14.60;;;11.40;;
51943;SDS011;37969;53.132;6.370;2024-01-06T14:10:16;15.82;;;12.25;;
51943;SDS011;37969;53.132;6.370;2024-01-06T14:12:47;15.95;;;11.82;;
51943;SDS011;37969;53.132;6.370;2024-01-06T14:15:15;17.45;;;12.60;;
51943;SDS011;37969;53.132;6.370;2024-01-06T14:17:45;16.58;;;12.13;;
51943;SDS011;37969;53.132;6.370;2024-01-06T14:20:15;16.73;;;11.75;;
51943;SDS011;37969;53.132;6.370;2024-01-06T14:22:48;16.27;;;12.20;;
51943;SDS011;37969;53.132;6.370;2024-01-06T14:25:16;16.98;;;12.63;;
51943;SDS011;37969;53.132;6.370;2024-01-06T14:27:44;17.20;;;12.27;;
51943;SDS011;37969;53.132;6.370;2024-01-06T14:30:12;19.67;;;13.17;;
51943;SDS011;37969;53.132;6.370;2024-01-06T14:32:38;16.90;;;12.60;;
51943;SDS011;37969;53.132;6.370;2024-01-06T14:35:06;17.33;;;12.63;;
51943;SDS011;37969;53.132;6.370;2024-01-06T14:37:37;16.52;;;12.38;;
51943;SDS011;37969;53.132;6.370;2024-01-06T14:40:06;16.67;;;12.32;;
51943;SDS011;37969;53.132;6.370;2024-01-06T14:42:37;17.88;;;13.52;;
51943;SDS011;37969;53.132;6.370;2024-01-06T14:45:04;17.77;;;12.68;;
51943;SDS011;37969;53.132;6.370;2024-01-06T14:47:33;17.50;;;13.20;;
51943;SDS011;37969;53.132;6.370;2024-01-06T14:49:59;17.42;;;13.38;;
51943;SDS011;37969;53.132;6.370;2024-01-06T14:52:25;16.20;;;12.35;;